createdAt,value
2023-05-03T00:00:10.495Z,100534.00
2023-05-03T00:01:44.343Z,100526.00
2023-05-03T00:03:17.463Z,100524.00
2023-05-03T00:04:54.923Z,100526.00
2023-05-03T00:06:28.191Z,100520.00
2023-05-03T00:08:00.922Z,100513.00
2023-05-03T00:09:35.147Z,100522.00
2023-05-03T00:11:09.476Z,100525.00
2023-05-03T00:12:44.325Z,100514.00
2023-05-03T00:14:17.426Z,100519.00
2023-05-03T00:15:51.151Z,100530.00
2023-05-03T00:17:24.276Z,100532.00
2023-05-03T00:18:57.421Z,100514.00
2023-05-03T00:20:33.142Z,100511.00
2023-05-03T00:22:07.224Z,100505.00
2023-05-03T00:23:40.310Z,100514.00
2023-05-03T00:25:13.415Z,100505.00
2023-05-03T00:26:46.763Z,100511.00
2023-05-03T00:28:19.779Z,100521.00
2023-05-03T00:29:53.583Z,100514.00
2023-05-03T00:31:26.715Z,100516.00
2023-05-03T00:33:00.076Z,100497.00
2023-05-03T00:34:33.488Z,100503.00
2023-05-03T00:36:12.411Z,100502.00
2023-05-03T00:37:45.744Z,100500.00
2023-05-03T00:39:18.818Z,100504.00
2023-05-03T00:40:55.697Z,100494.00
2023-05-03T00:42:28.789Z,100486.00
2023-05-03T00:44:01.854Z,100496.00
2023-05-03T00:45:35.780Z,100492.00
2023-05-03T00:47:09.357Z,100491.00
2023-05-03T00:48:42.927Z,100493.00
2023-05-03T00:50:16.530Z,100499.00
2023-05-03T00:51:52.302Z,100497.00
2023-05-03T00:53:25.647Z,100490.00
2023-05-03T00:54:59.309Z,100484.00
2023-05-03T00:56:44.395Z,100490.00
2023-05-03T00:58:25.757Z,100488.00
2023-05-03T00:59:59.277Z,100490.00
2023-05-03T01:01:32.835Z,100494.00
2023-05-03T01:03:06.009Z,100500.00
2023-05-03T01:04:41.071Z,100501.00
2023-05-03T01:06:32.129Z,100507.00
2023-05-03T01:08:16.450Z,100510.00
2023-05-03T01:10:01.204Z,100512.00
2023-05-03T01:11:47.420Z,100505.00
2023-05-03T01:13:31.967Z,100504.00
2023-05-03T01:15:14.415Z,100510.00
2023-05-03T01:16:54.135Z,100512.00
2023-05-03T01:18:32.408Z,100515.00
2023-05-03T01:20:10.982Z,100516.00
2023-05-03T01:21:49.724Z,100515.00
2023-05-03T01:23:43.764Z,100527.00
2023-05-03T01:25:18.539Z,100522.00
2023-05-03T01:26:51.600Z,100524.00
2023-05-03T01:28:23.830Z,100523.00
2023-05-03T01:29:56.885Z,100520.00
2023-05-03T01:31:36.019Z,100521.00
2023-05-03T01:33:31.900Z,100521.00
2023-05-03T01:35:12.664Z,100511.00
2023-05-03T01:36:46.883Z,100520.00
2023-05-03T01:38:21.867Z,100524.00
2023-05-03T01:40:03.954Z,100520.00
2023-05-03T01:41:42.727Z,100510.00
2023-05-03T01:43:19.644Z,100513.00
2023-05-03T01:44:55.754Z,100508.00
2023-05-03T01:46:28.965Z,100514.00
2023-05-03T01:48:02.232Z,100518.00
2023-05-03T01:49:36.219Z,100526.00
2023-05-03T01:51:09.480Z,100530.00
2023-05-03T01:52:42.637Z,100520.00
2023-05-03T01:54:16.194Z,100518.00
2023-05-03T01:55:48.404Z,100523.00
2023-05-03T01:57:21.676Z,100526.00
2023-05-03T01:58:54.775Z,100527.00
2023-05-03T02:00:27.021Z,100530.00
2023-05-03T02:02:00.166Z,100536.00
2023-05-03T02:03:33.318Z,100535.00
2023-05-03T02:05:08.780Z,100529.00
2023-05-03T02:06:42.044Z,100539.00
2023-05-03T02:08:14.219Z,100536.00
2023-05-03T02:09:47.683Z,100535.00
2023-05-03T02:11:21.324Z,100542.00
2023-05-03T02:12:55.474Z,100539.00
2023-05-03T02:14:28.593Z,100540.00
2023-05-03T02:16:00.735Z,100540.00
2023-05-03T02:17:34.114Z,100543.00
2023-05-03T02:19:08.118Z,100530.00
2023-05-03T02:20:46.493Z,100537.00
2023-05-03T02:22:18.695Z,100537.00
2023-05-03T02:23:51.761Z,100537.00
2023-05-03T02:25:26.355Z,100537.00
2023-05-03T02:27:00.634Z,100530.00
2023-05-03T02:28:33.966Z,100537.00
2023-05-03T02:30:09.153Z,100539.00
2023-05-03T02:31:47.770Z,100542.00
2023-05-03T02:33:21.784Z,100547.00
2023-05-03T02:34:55.730Z,100547.00
2023-05-03T02:36:32.031Z,100554.00
2023-05-03T02:38:07.511Z,100559.00
2023-05-03T02:39:40.706Z,100554.00
2023-05-03T02:41:14.352Z,100562.00
2023-05-03T02:42:47.614Z,100564.00
2023-05-03T02:44:25.865Z,100559.00
2023-05-03T02:45:59.062Z,100560.00
2023-05-03T02:47:32.526Z,100563.00
2023-05-03T02:49:05.763Z,100570.00
2023-05-03T02:50:40.608Z,100561.00
2023-05-03T02:52:15.504Z,100567.00
2023-05-03T02:53:48.660Z,100567.00
2023-05-03T02:55:20.918Z,100564.00
2023-05-03T02:56:54.656Z,100572.00
2023-05-03T02:58:26.811Z,100561.00
2023-05-03T03:00:00.395Z,100564.00
2023-05-03T03:01:34.800Z,100548.00
2023-05-03T03:03:07.035Z,100551.00
2023-05-03T03:04:40.332Z,100551.00
2023-05-03T03:06:15.721Z,100556.00
2023-05-03T03:07:50.299Z,100566.00
2023-05-03T03:09:24.192Z,100564.00
2023-05-03T03:10:57.413Z,100553.00
2023-05-03T03:12:30.982Z,100556.00
2023-05-03T03:14:05.873Z,100562.00
2023-05-03T03:15:38.044Z,100548.00
2023-05-03T03:17:11.146Z,100557.00
2023-05-03T03:18:44.319Z,100540.00
2023-05-03T03:20:17.619Z,100550.00
2023-05-03T03:21:53.576Z,100543.00
2023-05-03T03:23:28.040Z,100545.00
2023-05-03T03:25:01.115Z,100535.00
2023-05-03T03:26:34.233Z,100530.00
2023-05-03T03:28:07.543Z,100532.00
2023-05-03T03:29:41.853Z,100537.00
2023-05-03T03:31:18.974Z,100537.00
2023-05-03T03:32:53.427Z,100532.00
2023-05-03T03:34:34.029Z,100534.00
2023-05-03T03:36:10.349Z,100525.00
2023-05-03T03:37:47.292Z,100539.00
2023-05-03T03:39:22.048Z,100538.00
2023-05-03T03:40:55.961Z,100536.00
2023-05-03T03:42:29.593Z,100530.00
2023-05-03T03:44:04.724Z,100524.00
2023-05-03T03:45:37.850Z,100526.00
2023-05-03T03:47:11.801Z,100538.00
2023-05-03T03:48:45.122Z,100526.00
2023-05-03T03:50:19.172Z,100522.00
2023-05-03T03:51:51.737Z,100530.00
2023-05-03T03:53:24.907Z,100526.00
2023-05-03T03:54:59.394Z,100533.00
2023-05-03T03:56:32.918Z,100533.00
2023-05-03T03:58:05.983Z,100521.00
2023-05-03T03:59:39.789Z,100522.00
2023-05-03T04:01:12.439Z,100520.00
2023-05-03T04:02:47.303Z,100515.00
2023-05-03T04:04:24.287Z,100520.00
2023-05-03T04:05:58.422Z,100520.00
2023-05-03T04:07:32.928Z,100523.00
2023-05-03T04:09:06.209Z,100523.00
2023-05-03T04:10:42.394Z,100522.00
2023-05-03T04:12:15.719Z,100529.00
2023-05-03T04:13:51.268Z,100533.00
2023-05-03T04:15:24.443Z,100530.00
2023-05-03T04:16:58.675Z,100523.00
2023-05-03T04:18:32.660Z,100520.00
2023-05-03T04:20:10.818Z,100519.00
2023-05-03T04:21:46.049Z,100516.00
2023-05-03T04:23:19.198Z,100516.00
2023-05-03T04:24:54.637Z,100523.00
2023-05-03T04:26:32.221Z,100515.00
2023-05-03T04:28:14.981Z,100511.00
2023-05-03T04:29:50.956Z,100515.00
2023-05-03T04:31:25.032Z,100519.00
2023-05-03T04:33:01.502Z,100505.00
2023-05-03T04:34:37.649Z,100510.00
2023-05-03T04:36:15.923Z,100502.00
2023-05-03T04:37:52.126Z,100505.00
2023-05-03T04:39:28.837Z,100507.00
2023-05-03T04:41:03.041Z,100506.00
2023-05-03T04:42:38.307Z,100499.00
2023-05-03T04:44:11.862Z,100501.00
2023-05-03T04:45:45.205Z,100497.00
2023-05-03T04:47:23.509Z,100504.00
2023-05-03T04:48:57.678Z,100493.00
2023-05-03T04:50:31.257Z,100494.00
2023-05-03T04:52:05.691Z,100498.00
2023-05-03T04:53:40.277Z,100507.00
2023-05-03T04:55:18.876Z,100501.00
2023-05-03T04:56:52.519Z,100508.00
2023-05-03T04:58:27.005Z,100498.00
2023-05-03T05:00:00.764Z,100503.00
2023-05-03T05:01:33.959Z,100506.00
2023-05-03T05:03:09.493Z,100524.00
2023-05-03T05:04:42.883Z,100513.00
2023-05-03T05:06:16.745Z,100515.00
2023-05-03T05:07:49.834Z,100512.00
2023-05-03T05:09:27.885Z,100514.00
2023-05-03T05:11:05.230Z,100521.00
2023-05-03T05:12:38.629Z,100517.00
2023-05-03T05:14:14.114Z,100519.00
2023-05-03T05:15:47.227Z,100523.00
2023-05-03T05:17:21.379Z,100528.00
2023-05-03T05:18:55.194Z,100522.00
2023-05-03T05:20:31.878Z,100528.00
2023-05-03T05:22:05.568Z,100523.00
2023-05-03T05:23:50.310Z,100537.00
2023-05-03T05:25:23.383Z,100521.00
2023-05-03T05:26:56.792Z,100533.00
2023-05-03T05:28:30.628Z,100538.00
2023-05-03T05:30:06.541Z,100538.00
2023-05-03T05:31:41.000Z,100529.00
2023-05-03T05:33:16.666Z,100533.00
2023-05-03T05:34:55.297Z,100543.00
2023-05-03T05:36:31.329Z,100537.00
2023-05-03T05:38:05.015Z,100530.00
2023-05-03T05:39:39.278Z,100534.00
2023-05-03T05:41:27.010Z,100531.00
2023-05-03T05:43:00.380Z,100543.00
2023-05-03T05:44:35.254Z,100550.00
2023-05-03T05:46:10.011Z,100552.00
2023-05-03T05:47:43.675Z,100552.00
2023-05-03T05:49:17.002Z,100547.00
2023-05-03T05:50:50.960Z,100558.00
2023-05-03T05:52:24.433Z,100547.00
2023-05-03T05:53:58.365Z,100560.00
2023-05-03T05:55:31.737Z,100556.00
2023-05-03T05:57:06.145Z,100556.00
2023-05-03T05:58:39.376Z,100554.00
2023-05-03T06:00:15.404Z,100566.00
2023-05-03T06:01:52.024Z,100570.00
2023-05-03T06:03:27.256Z,100586.00
2023-05-03T06:05:01.450Z,100576.00
2023-05-03T06:06:36.238Z,100575.00
2023-05-03T06:08:09.991Z,100575.00
2023-05-03T06:09:43.485Z,100570.00
2023-05-03T06:11:17.479Z,100582.00
2023-05-03T06:12:51.800Z,100578.00
2023-05-03T06:14:28.928Z,100581.00
2023-05-03T06:16:02.725Z,100575.00
2023-05-03T06:17:37.286Z,100588.00
2023-05-03T06:19:10.458Z,100583.00
2023-05-03T06:20:43.775Z,100575.00
2023-05-03T06:22:17.011Z,100572.00
2023-05-03T06:23:50.375Z,100576.00
2023-05-03T06:25:23.646Z,100569.00
2023-05-03T06:26:58.539Z,100567.00
2023-05-03T06:28:31.737Z,100566.00
2023-05-03T06:30:06.484Z,100565.00
2023-05-03T06:31:41.942Z,100568.00
2023-05-03T06:33:18.689Z,100571.00
2023-05-03T06:34:54.562Z,100579.00
2023-05-03T06:36:30.306Z,100576.00
2023-05-03T06:38:03.769Z,100576.00
2023-05-03T06:39:37.067Z,100566.00
2023-05-03T06:41:10.282Z,100572.00
2023-05-03T06:42:43.381Z,100565.00
2023-05-03T06:44:20.500Z,100571.00
2023-05-03T06:45:53.807Z,100573.00
2023-05-03T06:47:27.169Z,100568.00
2023-05-03T06:49:01.728Z,100576.00
2023-05-03T06:50:34.857Z,100566.00
2023-05-03T06:52:10.928Z,100574.00
2023-05-03T06:53:46.147Z,100574.00
2023-05-03T06:55:19.390Z,100570.00
2023-05-03T06:56:52.542Z,100569.00
2023-05-03T06:58:25.733Z,100566.00
2023-05-03T06:59:59.142Z,100568.00
2023-05-03T07:01:33.941Z,100556.00
2023-05-03T07:03:07.598Z,100561.00
2023-05-03T07:04:42.229Z,100566.00
2023-05-03T07:06:16.823Z,100556.00
2023-05-03T07:07:50.262Z,100560.00
2023-05-03T07:09:35.428Z,100560.00
2023-05-03T07:11:14.949Z,100564.00
2023-05-03T07:12:48.099Z,100556.00
2023-05-03T07:14:21.426Z,100550.00
2023-05-03T07:15:54.648Z,100550.00
2023-05-03T07:17:27.950Z,100547.00
2023-05-03T07:19:01.213Z,100551.00
2023-05-03T07:20:36.794Z,100547.00
2023-05-03T07:22:10.117Z,100555.00
2023-05-03T07:23:43.493Z,100545.00
2023-05-03T07:26:50.714Z,100546.00
2023-05-03T07:28:24.660Z,100543.00
2023-05-03T07:29:57.777Z,100547.00
2023-05-03T07:31:31.398Z,100547.00
2023-05-03T07:33:04.715Z,100540.00
2023-05-03T07:34:37.997Z,100545.00
2023-05-03T07:36:13.406Z,100538.00
2023-05-03T07:37:46.564Z,100533.00
2023-05-03T07:39:20.570Z,100534.00
2023-05-03T07:40:53.647Z,100530.00
2023-05-03T07:42:26.785Z,100537.00
2023-05-03T07:43:59.973Z,100533.00
2023-05-03T07:45:33.087Z,100531.00
2023-05-03T07:47:06.234Z,100525.00
2023-05-03T07:48:39.400Z,100524.00
2023-05-03T07:50:12.615Z,100527.00
2023-05-03T07:51:47.080Z,100531.00
2023-05-03T07:53:20.206Z,100512.00
2023-05-03T07:54:54.557Z,100515.00
2023-05-03T07:56:28.858Z,100517.00
2023-05-03T07:58:02.221Z,100512.00
2023-05-03T07:59:36.098Z,100518.00
2023-05-03T08:01:09.467Z,100525.00
2023-05-03T08:02:42.941Z,100513.00
2023-05-03T08:04:16.304Z,100519.00
2023-05-03T08:05:50.331Z,100523.00
2023-05-03T08:07:25.275Z,100520.00
2023-05-03T08:08:58.241Z,100513.00
2023-05-03T08:10:32.169Z,100504.00
2023-05-03T08:12:05.653Z,100516.00
2023-05-03T08:13:38.854Z,100505.00
2023-05-03T08:15:12.226Z,100507.00
2023-05-03T08:16:45.349Z,100504.00
2023-05-03T08:18:18.485Z,100510.00
2023-05-03T08:19:52.164Z,100521.00
2023-05-03T08:21:26.294Z,100515.00
2023-05-03T08:23:01.534Z,100508.00
2023-05-03T08:24:35.048Z,100517.00
2023-05-03T08:26:09.295Z,100509.00
2023-05-03T08:27:42.511Z,100513.00
2023-05-03T08:29:15.766Z,100516.00
2023-05-03T08:30:49.257Z,100514.00
2023-05-03T08:32:22.542Z,100506.00
2023-05-03T08:33:55.816Z,100502.00
2023-05-03T08:35:29.010Z,100505.00
2023-05-03T08:37:04.264Z,100520.00
2023-05-03T08:38:41.094Z,100507.00
2023-05-03T08:40:15.492Z,100501.00
2023-05-03T08:41:49.380Z,100495.00
2023-05-03T08:43:27.143Z,100493.00
2023-05-03T08:45:00.694Z,100504.00
2023-05-03T08:46:36.997Z,100497.00
2023-05-03T08:48:10.347Z,100499.00
2023-05-03T08:49:44.829Z,100501.00
2023-05-03T08:51:18.991Z,100493.00
2023-05-03T08:52:52.262Z,100497.00
2023-05-03T08:54:27.216Z,100492.00
2023-05-03T08:56:00.493Z,100491.00
2023-05-03T08:57:35.628Z,100491.00
2023-05-03T08:59:09.128Z,100493.00
2023-05-03T09:00:44.836Z,100505.00
2023-05-03T09:02:18.885Z,100505.00
2023-05-03T09:03:53.150Z,100505.00
2023-05-03T09:05:39.023Z,100515.00
2023-05-03T09:07:16.022Z,100512.00
2023-05-03T09:08:50.029Z,100513.00
2023-05-03T09:10:27.357Z,100508.00
2023-05-03T09:12:01.393Z,100509.00
2023-05-03T09:13:34.504Z,100512.00
2023-05-03T09:15:08.932Z,100500.00
2023-05-03T09:16:44.474Z,100505.00
2023-05-03T09:18:20.543Z,100505.00
2023-05-03T09:19:56.194Z,100497.00
2023-05-03T09:21:31.561Z,100496.00
2023-05-03T09:23:04.883Z,100506.00
2023-05-03T09:24:38.558Z,100493.00
2023-05-03T09:26:15.275Z,100492.00
2023-05-03T09:28:02.306Z,100490.00
2023-05-03T09:29:36.655Z,100486.00
2023-05-03T09:31:11.456Z,100482.00
2023-05-03T09:32:49.774Z,100481.00
2023-05-03T09:34:23.460Z,100486.00
2023-05-03T09:36:02.798Z,100490.00
2023-05-03T09:37:39.073Z,100490.00
2023-05-03T09:39:19.107Z,100492.00
2023-05-03T09:40:52.365Z,100481.00
2023-05-03T09:42:28.784Z,100483.00
2023-05-03T09:44:03.429Z,100476.00
2023-05-03T09:45:37.705Z,100488.00
2023-05-03T09:47:12.702Z,100477.00
2023-05-03T09:48:46.657Z,100480.00
2023-05-03T09:50:19.803Z,100481.00
2023-05-03T09:51:53.255Z,100471.00
2023-05-03T09:53:28.820Z,100468.00
2023-05-03T09:55:02.285Z,100472.00
2023-05-03T09:56:35.759Z,100453.00
2023-05-03T09:58:10.191Z,100470.00
2023-05-03T09:59:46.501Z,100471.00
2023-05-03T10:01:20.738Z,100468.00
2023-05-03T10:02:58.044Z,100470.00
2023-05-03T10:04:41.238Z,100468.00
2023-05-03T10:06:26.547Z,100468.00
2023-05-03T10:08:05.285Z,100469.00
2023-05-03T10:09:44.390Z,100476.00
2023-05-03T10:11:19.624Z,100469.00
2023-05-03T10:12:53.933Z,100476.00
2023-05-03T10:14:28.580Z,100473.00
2023-05-03T10:16:08.237Z,100473.00
2023-05-03T10:17:48.264Z,100465.00
2023-05-03T10:19:32.238Z,100468.00
2023-05-03T10:21:12.938Z,100467.00
2023-05-03T10:23:14.577Z,100465.00
2023-05-03T10:25:10.487Z,100448.00
2023-05-03T10:26:46.425Z,100452.00
2023-05-03T10:28:19.510Z,100449.00
2023-05-03T10:29:54.104Z,100444.00
2023-05-03T10:31:47.513Z,100445.00
2023-05-03T10:33:32.844Z,100441.00
2023-05-03T10:35:10.225Z,100451.00
2023-05-03T10:36:49.843Z,100431.00
2023-05-03T10:38:25.377Z,100432.00
2023-05-03T10:40:11.277Z,100440.00
2023-05-03T10:41:44.383Z,100428.00
2023-05-03T10:43:46.765Z,100429.00
2023-05-03T10:45:28.064Z,100434.00
2023-05-03T10:47:13.626Z,100432.00
2023-05-03T10:49:20.680Z,100430.00
2023-05-03T10:50:53.950Z,100435.00
2023-05-03T10:52:49.754Z,100424.00
2023-05-03T10:54:23.293Z,100432.00
2023-05-03T10:56:05.349Z,100432.00
2023-05-03T10:57:41.292Z,100418.00
2023-05-03T10:59:14.389Z,100422.00
2023-05-03T11:00:52.097Z,100418.00
2023-05-03T11:02:34.714Z,100419.00
2023-05-03T11:04:13.578Z,100421.00
2023-05-03T11:05:49.377Z,100421.00
2023-05-03T11:07:22.581Z,100416.00
2023-05-03T11:08:56.422Z,100415.00
2023-05-03T11:10:29.593Z,100416.00
2023-05-03T11:12:08.750Z,100407.00
2023-05-03T11:13:42.268Z,100412.00
2023-05-03T11:15:15.363Z,100412.00
2023-05-03T11:16:51.951Z,100407.00
2023-05-03T11:18:28.066Z,100397.00
2023-05-03T11:20:01.554Z,100402.00
2023-05-03T11:21:34.980Z,100401.00
2023-05-03T11:23:08.557Z,100399.00
2023-05-03T11:24:41.742Z,100401.00
2023-05-03T11:26:15.482Z,100395.00
2023-05-03T11:27:48.557Z,100398.00
2023-05-03T11:29:21.900Z,100409.00
2023-05-03T11:30:55.155Z,100398.00
2023-05-03T11:32:31.308Z,100386.00
2023-05-03T11:34:04.417Z,100401.00
2023-05-03T11:35:38.538Z,100398.00
2023-05-03T11:37:11.627Z,100395.00
2023-05-03T11:38:45.078Z,100394.00
2023-05-03T11:40:18.580Z,100394.00
2023-05-03T11:42:05.229Z,100398.00
2023-05-03T11:43:42.709Z,100389.00
2023-05-03T11:45:16.278Z,100393.00
2023-05-03T11:46:49.811Z,100391.00
2023-05-03T11:48:26.122Z,100388.00
2023-05-03T11:49:59.446Z,100386.00
2023-05-03T11:51:33.053Z,100379.00
2023-05-03T11:53:06.544Z,100375.00
2023-05-03T11:54:39.670Z,100371.00
2023-05-03T11:56:15.272Z,100377.00
2023-05-03T11:57:48.717Z,100379.00
2023-05-03T11:59:22.136Z,100376.00
2023-05-03T12:00:57.802Z,100378.00
2023-05-03T12:02:31.324Z,100380.00
2023-05-03T12:04:06.716Z,100374.00
2023-05-03T12:05:41.373Z,100385.00
2023-05-03T12:07:18.351Z,100384.00
2023-05-03T12:08:53.623Z,100373.00
2023-05-03T12:10:35.521Z,100376.00
2023-05-03T12:12:10.862Z,100373.00
2023-05-03T12:13:45.443Z,100388.00
2023-05-03T12:15:30.951Z,100386.00
2023-05-03T12:17:04.336Z,100392.00
2023-05-03T12:18:51.208Z,100385.00
2023-05-03T12:20:51.836Z,100386.00
2023-05-03T12:22:26.558Z,100385.00
2023-05-03T12:24:01.653Z,100387.00
2023-05-03T12:25:39.428Z,100379.00
2023-05-03T12:27:14.279Z,100385.00
2023-05-03T12:28:48.666Z,100385.00
2023-05-03T12:31:57.088Z,100364.00
2023-05-03T12:33:33.473Z,100371.00
2023-05-03T12:35:09.558Z,100366.00
2023-05-03T12:36:49.167Z,100364.00
2023-05-03T12:38:24.408Z,100360.00
2023-05-03T12:40:15.157Z,100366.00
2023-05-03T12:43:27.311Z,100368.00
2023-05-03T12:45:04.127Z,100363.00
2023-05-03T12:46:39.155Z,100364.00
2023-05-03T12:48:13.179Z,100356.00
2023-05-03T12:49:46.918Z,100355.00
2023-05-03T12:51:22.688Z,100365.00
2023-05-03T12:53:02.531Z,100352.00
2023-05-03T12:54:37.702Z,100357.00
2023-05-03T12:56:15.436Z,100361.00
2023-05-03T12:57:58.186Z,100349.00
2023-05-03T12:59:43.387Z,100344.00
2023-05-03T13:03:22.470Z,100341.00
2023-05-03T13:04:58.664Z,100344.00
2023-05-03T13:06:44.789Z,100342.00
2023-05-03T13:08:21.727Z,100338.00
2023-05-03T13:11:32.425Z,100345.00
2023-05-03T13:13:06.704Z,100337.00
2023-05-03T13:14:41.000Z,100335.00
2023-05-03T13:16:14.566Z,100335.00
2023-05-03T13:17:50.190Z,100335.00
2023-05-03T13:19:24.845Z,100322.00
2023-05-03T13:20:57.961Z,100321.00
2023-05-03T13:22:31.828Z,100330.00
2023-05-03T13:24:07.522Z,100319.00
2023-05-03T13:25:40.847Z,100312.00
2023-05-03T13:27:14.392Z,100314.00
2023-05-03T13:28:47.831Z,100309.00
2023-05-03T13:30:22.964Z,100307.00
2023-05-03T13:31:56.113Z,100310.00
2023-05-03T13:33:29.608Z,100306.00
2023-05-03T13:35:03.290Z,100309.00
2023-05-03T13:36:36.757Z,100308.00
2023-05-03T13:38:10.139Z,100299.00
2023-05-03T13:39:44.605Z,100313.00
2023-05-03T13:41:18.939Z,100312.00
2023-05-03T13:42:52.407Z,100299.00
2023-05-03T13:44:25.985Z,100307.00
2023-05-03T13:46:01.897Z,100298.00
2023-05-03T13:48:00.129Z,100304.00
2023-05-03T13:49:28.368Z,100295.00
2023-05-03T13:51:01.891Z,100285.00
2023-05-03T13:52:35.146Z,100289.00
2023-05-03T13:54:08.740Z,100280.00
2023-05-03T13:55:43.193Z,100289.00
2023-05-03T13:57:16.391Z,100294.00
2023-05-03T13:58:49.417Z,100286.00
2023-05-03T14:00:23.203Z,100284.00
2023-05-03T14:01:56.521Z,100286.00
2023-05-03T14:03:30.215Z,100288.00
2023-05-03T14:05:05.671Z,100278.00
2023-05-03T14:06:41.463Z,100271.00
2023-05-03T14:08:15.058Z,100279.00
2023-05-03T14:09:48.176Z,100284.00
2023-05-03T14:11:22.979Z,100267.00
2023-05-03T14:12:57.845Z,100266.00
2023-05-03T14:14:31.025Z,100265.00
2023-05-03T14:16:04.516Z,100265.00
2023-05-03T14:17:38.438Z,100267.00
2023-05-03T14:19:11.949Z,100263.00
2023-05-03T14:20:45.596Z,100266.00
2023-05-03T14:22:18.745Z,100259.00
2023-05-03T14:23:52.968Z,100252.00
2023-05-03T14:25:27.891Z,100248.00
2023-05-03T14:27:02.909Z,100241.00
2023-05-03T14:28:36.203Z,100241.00
2023-05-03T14:30:10.651Z,100251.00
2023-05-03T14:31:44.213Z,100251.00
2023-05-03T14:33:17.726Z,100250.00
2023-05-03T14:34:51.262Z,100248.00
2023-05-03T14:36:24.574Z,100239.00
2023-05-03T14:37:57.731Z,100233.00
2023-05-03T14:39:30.971Z,100233.00
2023-05-03T14:41:04.648Z,100236.00
2023-05-03T14:42:39.110Z,100233.00
2023-05-03T14:44:12.215Z,100231.00
2023-05-03T14:45:45.682Z,100222.00
2023-05-03T14:47:19.266Z,100230.00
2023-05-03T14:48:52.357Z,100224.00
2023-05-03T14:50:25.479Z,100229.00
2023-05-03T14:51:59.622Z,100230.00
2023-05-03T14:53:32.775Z,100225.00
2023-05-03T14:55:08.011Z,100218.00
2023-05-03T14:56:41.223Z,100217.00
2023-05-03T14:58:16.103Z,100215.00
2023-05-03T14:59:49.297Z,100221.00
2023-05-03T15:01:23.798Z,100219.00
2023-05-03T15:02:57.202Z,100209.00
2023-05-03T15:04:30.747Z,100219.00
2023-05-03T15:06:03.945Z,100211.00
2023-05-03T15:07:37.074Z,100218.00
2023-05-03T15:09:12.934Z,100221.00
2023-05-03T15:10:47.564Z,100212.00
2023-05-03T15:12:20.877Z,100218.00
2023-05-03T15:13:55.382Z,100214.00
2023-05-03T15:15:28.827Z,100215.00
2023-05-03T15:17:02.051Z,100222.00
2023-05-03T15:18:35.273Z,100221.00
2023-05-03T15:20:13.703Z,100228.00
2023-05-03T15:21:48.707Z,100207.00
2023-05-03T15:23:22.060Z,100207.00
2023-05-03T15:24:55.183Z,100202.00
2023-05-03T15:26:28.281Z,100203.00
2023-05-03T15:28:04.304Z,100203.00
2023-05-03T15:29:39.237Z,100212.00
2023-05-03T15:31:13.919Z,100204.00
2023-05-03T15:32:47.158Z,100203.00
2023-05-03T15:34:20.538Z,100189.00
2023-05-03T15:35:54.486Z,100193.00
2023-05-03T15:37:37.270Z,100198.00
2023-05-03T15:39:10.516Z,100196.00
2023-05-03T15:40:43.674Z,100192.00
2023-05-03T15:42:16.821Z,100195.00
2023-05-03T15:43:49.884Z,100189.00
2023-05-03T15:45:26.039Z,100194.00
2023-05-03T15:46:59.195Z,100192.00
2023-05-03T15:48:32.554Z,100187.00
2023-05-03T15:50:07.693Z,100182.00
2023-05-03T15:51:41.173Z,100197.00
2023-05-03T15:53:14.564Z,100190.00
2023-05-03T15:54:47.721Z,100191.00
2023-05-03T15:56:21.848Z,100184.00
2023-05-03T15:57:57.028Z,100189.00
2023-05-03T15:59:30.402Z,100186.00
2023-05-03T16:01:05.532Z,100187.00
2023-05-03T16:02:38.677Z,100188.00
2023-05-03T16:04:12.098Z,100185.00
2023-05-03T16:05:46.923Z,100181.00
2023-05-03T16:07:20.077Z,100190.00
2023-05-03T16:08:53.969Z,100184.00
2023-05-03T16:10:27.305Z,100184.00
2023-05-03T16:12:00.479Z,100181.00
2023-05-03T16:13:33.518Z,100180.00
2023-05-03T16:15:08.143Z,100179.00
2023-05-03T16:16:43.961Z,100185.00
2023-05-03T16:18:17.244Z,100189.00
2023-05-03T16:19:50.657Z,100186.00
2023-05-03T16:21:23.822Z,100188.00
2023-05-03T16:22:57.062Z,100183.00
2023-05-03T16:24:30.578Z,100182.00
2023-05-03T16:26:14.181Z,100172.00
2023-05-03T16:27:47.391Z,100187.00
2023-05-03T16:29:20.940Z,100174.00
2023-05-03T16:30:54.053Z,100183.00
2023-05-03T16:32:28.808Z,100181.00
2023-05-03T16:34:02.576Z,100174.00
2023-05-03T16:35:35.788Z,100177.00
2023-05-03T16:37:08.882Z,100180.00
2023-05-03T16:38:41.899Z,100173.00
2023-05-03T16:40:15.308Z,100175.00
2023-05-03T16:41:48.608Z,100165.00
2023-05-03T16:43:21.692Z,100161.00
2023-05-03T16:44:54.951Z,100168.00
2023-05-03T16:46:28.140Z,100167.00
2023-05-03T16:48:05.046Z,100177.00
2023-05-03T16:49:39.263Z,100170.00
2023-05-03T16:51:12.636Z,100169.00
2023-05-03T16:52:45.970Z,100173.00
2023-05-03T16:54:19.037Z,100164.00
2023-05-03T16:55:52.789Z,100171.00
2023-05-03T16:57:25.870Z,100174.00
2023-05-03T16:59:00.130Z,100166.00
2023-05-03T17:00:33.511Z,100166.00
2023-05-03T17:02:07.284Z,100161.00
2023-05-03T17:03:43.269Z,100159.00
2023-05-03T17:05:16.441Z,100163.00
2023-05-03T17:06:49.782Z,100163.00
2023-05-03T17:08:22.935Z,100162.00
2023-05-03T17:09:56.742Z,100152.00
2023-05-03T17:11:29.968Z,100163.00
2023-05-03T17:13:03.622Z,100164.00
2023-05-03T17:14:36.821Z,100160.00
2023-05-03T17:16:12.679Z,100157.00
2023-05-03T17:17:46.253Z,100157.00
2023-05-03T17:19:20.768Z,100154.00
2023-05-03T17:20:59.509Z,100151.00
2023-05-03T17:22:32.952Z,100146.00
2023-05-03T17:24:06.862Z,100146.00
2023-05-03T17:25:40.396Z,100149.00
2023-05-03T17:27:13.563Z,100147.00
2023-05-03T17:28:48.094Z,100144.00
2023-05-03T17:30:21.616Z,100140.00
2023-05-03T17:31:55.595Z,100145.00
2023-05-03T17:33:29.041Z,100146.00
2023-05-03T17:35:03.821Z,100142.00
2023-05-03T17:36:37.433Z,100145.00
2023-05-03T17:38:10.848Z,100139.00
2023-05-03T17:39:44.340Z,100140.00
2023-05-03T17:41:17.468Z,100142.00
2023-05-03T17:42:50.640Z,100149.00
2023-05-03T17:44:24.015Z,100143.00
2023-05-03T17:45:57.249Z,100142.00
2023-05-03T17:47:30.518Z,100148.00
2023-05-03T17:49:03.890Z,100135.00
2023-05-03T17:50:38.345Z,100146.00
2023-05-03T17:52:11.463Z,100140.00
2023-05-03T17:53:44.594Z,100146.00
2023-05-03T17:55:18.293Z,100142.00
2023-05-03T17:56:51.923Z,100153.00
2023-05-03T17:58:25.221Z,100145.00
2023-05-03T17:59:58.289Z,100147.00
2023-05-03T18:01:31.543Z,100150.00
2023-05-03T18:03:07.861Z,100153.00
2023-05-03T18:04:41.133Z,100149.00
2023-05-03T18:06:16.554Z,100146.00
2023-05-03T18:07:49.626Z,100146.00
2023-05-03T18:09:25.112Z,100150.00
2023-05-03T18:11:01.288Z,100159.00
2023-05-03T18:12:34.417Z,100151.00
2023-05-03T18:14:08.185Z,100150.00